Edwards, New York
Current Conditions -  °F | °C
As of 9:03 PM on Sunday 21 Dec 2014 (Local Time) from KGTB Reporting Station
Scattered Clouds Scattered Clouds  
Wind Chill: 19°   Ceiling: Unl
Heat Index: 19°   Visibility: 9mi
Dew Point: 16°   Wind: 3mph
Humidity: 86%   Direction: 50°NE
Pressure: 30.32"   Gusts: NA
Location:  44.32°N, 75.25°W
Report Text: KGTB 220203Z AUTO 05003KT 9SM R21/5500FT SCT027 M07/M09 A3032 RMK AO2
Loading
Personal Weather Stations






























Interactive Weather Map New forecast layout! Learn more

10-Day Weather Forecast

Advertisements
Track Severe Weather on mobile